sensor_id;sensor_type;location;lat;lon;timestamp;pressure;altitude;pressure_sealevel;temperature;humidity
61205;BME280;47068;55.780;37.520;2024-01-25T00:01:43;98780.16;;;2.88;82.51
61205;BME280;47068;55.780;37.520;2024-01-25T00:04:08;98784.72;;;2.86;83.48
61205;BME280;47068;55.780;37.520;2024-01-25T00:06:34;98769.22;;;2.92;84.54
61205;BME280;47068;55.780;37.520;2024-01-25T00:08:59;98772.28;;;2.97;84.45
61205;BME280;47068;55.780;37.520;2024-01-25T00:11:26;98767.84;;;2.88;82.25
61205;BME280;47068;55.780;37.520;2024-01-25T00:13:51;98758.00;;;2.71;83.32
61205;BME280;47068;55.780;37.520;2024-01-25T00:16:16;98757.88;;;2.72;84.21
61205;BME280;47068;55.780;37.520;2024-01-25T00:18:42;98754.84;;;2.67;83.44
61205;BME280;47068;55.780;37.520;2024-01-25T00:21:07;98738.25;;;2.67;84.00
61205;BME280;47068;55.780;37.520;2024-01-25T00:23:33;98745.44;;;2.55;83.88
61205;BME280;47068;55.780;37.520;2024-01-25T00:25:58;98739.50;;;2.53;84.28
61205;BME280;47068;55.780;37.520;2024-01-25T00:28:25;98735.50;;;2.59;84.79
61205;BME280;47068;55.780;37.520;2024-01-25T00:30:50;98742.41;;;2.69;85.79
61205;BME280;47068;55.780;37.520;2024-01-25T00:33:15;98743.25;;;2.80;85.86
61205;BME280;47068;55.780;37.520;2024-01-25T00:35:41;98733.00;;;2.67;83.71
61205;BME280;47068;55.780;37.520;2024-01-25T00:38:06;98730.53;;;2.65;84.60
61205;BME280;47068;55.780;37.520;2024-01-25T00:40:32;98730.66;;;2.73;85.55
61205;BME280;47068;55.780;37.520;2024-01-25T00:42:57;98724.59;;;2.83;85.88
61205;BME280;47068;55.780;37.520;2024-01-25T00:45:23;98726.22;;;2.84;84.32
61205;BME280;47068;55.780;37.520;2024-01-25T00:47:49;98723.50;;;2.75;83.67
61205;BME280;47068;55.780;37.520;2024-01-25T00:50:14;98722.53;;;2.76;84.65
61205;BME280;47068;55.780;37.520;2024-01-25T00:52:42;98719.75;;;2.88;85.46
61205;BME280;47068;55.780;37.520;2024-01-25T00:55:08;98710.59;;;2.92;84.42
61205;BME280;47068;55.780;37.520;2024-01-25T00:57:34;98712.00;;;2.96;84.72
61205;BME280;47068;55.780;37.520;2024-01-25T00:59:59;98705.06;;;3.04;84.78
61205;BME280;47068;55.780;37.520;2024-01-25T01:02:26;98702.19;;;2.78;84.22
61205;BME280;47068;55.780;37.520;2024-01-25T01:04:56;98702.19;;;2.59;83.56
61205;BME280;47068;55.780;37.520;2024-01-25T01:07:22;98687.09;;;2.42;85.00
61205;BME280;47068;55.780;37.520;2024-01-25T01:09:48;98694.31;;;2.59;86.97
61205;BME280;47068;55.780;37.520;2024-01-25T01:12:13;98672.47;;;2.59;86.18
61205;BME280;47068;55.780;37.520;2024-01-25T01:14:39;98683.13;;;2.48;84.83
61205;BME280;47068;55.780;37.520;2024-01-25T01:17:04;98683.09;;;2.38;86.15
61205;BME280;47068;55.780;37.520;2024-01-25T01:19:31;98678.41;;;2.51;86.66
61205;BME280;47068;55.780;37.520;2024-01-25T01:21:56;98660.88;;;2.32;84.89
61205;BME280;47068;55.780;37.520;2024-01-25T01:24:21;98670.78;;;2.29;85.01
61205;BME280;47068;55.780;37.520;2024-01-25T01:26:47;98649.78;;;2.10;85.62
61205;BME280;47068;55.780;37.520;2024-01-25T01:29:14;98649.81;;;2.19;86.36
61205;BME280;47068;55.780;37.520;2024-01-25T01:31:39;98653.13;;;2.41;87.02
61205;BME280;47068;55.780;37.520;2024-01-25T01:34:05;98646.91;;;2.51;86.50
61205;BME280;47068;55.780;37.520;2024-01-25T01:36:30;98658.66;;;2.66;86.49
61205;BME280;47068;55.780;37.520;2024-01-25T01:38:56;98652.69;;;2.64;85.37
61205;BME280;47068;55.780;37.520;2024-01-25T01:41:21;98646.09;;;2.41;84.65
61205;BME280;47068;55.780;37.520;2024-01-25T01:43:47;98656.72;;;2.40;85.21
61205;BME280;47068;55.780;37.520;2024-01-25T01:48:58;98654.25;;;2.48;84.46
61205;BME280;47068;55.780;37.520;2024-01-25T01:51:24;98650.09;;;2.45;84.21
61205;BME280;47068;55.780;37.520;2024-01-25T01:53:50;98650.34;;;2.42;82.67
61205;BME280;47068;55.780;37.520;2024-01-25T01:56:15;98644.69;;;2.37;83.52
61205;BME280;47068;55.780;37.520;2024-01-25T01:58:41;98642.91;;;2.37;84.34
61205;BME280;47068;55.780;37.520;2024-01-25T02:01:07;98644.16;;;2.33;83.46
61205;BME280;47068;55.780;37.520;2024-01-25T02:03:33;98639.31;;;2.48;84.79
61205;BME280;47068;55.780;37.520;2024-01-25T02:06:00;98635.72;;;2.49;83.60
61205;BME280;47068;55.780;37.520;2024-01-25T02:08:31;98638.78;;;2.54;83.85
61205;BME280;47068;55.780;37.520;2024-01-25T02:10:56;98638.03;;;2.71;85.34
61205;BME280;47068;55.780;37.520;2024-01-25T02:13:22;98619.25;;;2.66;85.32
61205;BME280;47068;55.780;37.520;2024-01-25T02:15:47;98635.00;;;2.86;84.03
61205;BME280;47068;55.780;37.520;2024-01-25T02:18:13;98636.53;;;2.59;81.58
61205;BME280;47068;55.780;37.520;2024-01-25T02:20:38;98643.88;;;2.46;82.54
61205;BME280;47068;55.780;37.520;2024-01-25T02:23:04;98642.34;;;2.53;84.42
61205;BME280;47068;55.780;37.520;2024-01-25T02:25:29;98642.34;;;2.72;84.82
61205;BME280;47068;55.780;37.520;2024-01-25T02:27:55;98637.38;;;2.69;83.88
61205;BME280;47068;55.780;37.520;2024-01-25T02:30:20;98645.53;;;2.47;81.97
61205;BME280;47068;55.780;37.520;2024-01-25T02:32:46;98619.56;;;2.44;83.87
61205;BME280;47068;55.780;37.520;2024-01-25T02:35:11;98642.19;;;2.64;84.13
61205;BME280;47068;55.780;37.520;2024-01-25T02:37:36;98634.34;;;2.45;82.84
61205;BME280;47068;55.780;37.520;2024-01-25T02:40:02;98631.19;;;2.42;84.26
61205;BME280;47068;55.780;37.520;2024-01-25T02:42:28;98632.81;;;2.33;84.53
61205;BME280;47068;55.780;37.520;2024-01-25T02:44:54;98632.09;;;2.21;84.46
61205;BME280;47068;55.780;37.520;2024-01-25T02:47:19;98627.69;;;2.22;85.23
61205;BME280;47068;55.780;37.520;2024-01-25T02:49:44;98629.78;;;2.18;85.42
61205;BME280;47068;55.780;37.520;2024-01-25T02:52:10;98614.84;;;2.00;84.52
61205;BME280;47068;55.780;37.520;2024-01-25T02:54:35;98618.03;;;1.93;85.88
61205;BME280;47068;55.780;37.520;2024-01-25T02:57:04;98615.91;;;1.87;85.43
61205;BME280;47068;55.780;37.520;2024-01-25T02:59:30;98611.91;;;1.83;85.57
61205;BME280;47068;55.780;37.520;2024-01-25T03:01:55;98612.41;;;1.58;85.18
61205;BME280;47068;55.780;37.520;2024-01-25T03:04:21;98589.59;;;1.39;86.51
61205;BME280;47068;55.780;37.520;2024-01-25T03:06:46;98614.00;;;1.40;86.21
61205;BME280;47068;55.780;37.520;2024-01-25T03:09:12;98612.75;;;1.34;86.90
61205;BME280;47068;55.780;37.520;2024-01-25T03:11:38;98605.47;;;1.38;86.91
61205;BME280;47068;55.780;37.520;2024-01-25T03:14:04;98597.50;;;1.49;87.27
61205;BME280;47068;55.780;37.520;2024-01-25T03:16:29;98604.16;;;1.63;88.25
61205;BME280;47068;55.780;37.520;2024-01-25T03:18:55;98593.63;;;1.53;86.07
61205;BME280;47068;55.780;37.520;2024-01-25T03:21:20;98587.47;;;1.24;86.70
61205;BME280;47068;55.780;37.520;2024-01-25T03:23:45;98593.56;;;1.24;87.51
61205;BME280;47068;55.780;37.520;2024-01-25T03:26:11;98586.06;;;1.10;87.17
61205;BME280;47068;55.780;37.520;2024-01-25T03:28:36;98588.50;;;1.11;87.87
61205;BME280;47068;55.780;37.520;2024-01-25T03:31:04;98593.25;;;1.17;88.14
61205;BME280;47068;55.780;37.520;2024-01-25T03:33:30;98593.69;;;1.23;87.91
61205;BME280;47068;55.780;37.520;2024-01-25T03:36:01;98580.31;;;1.26;87.53
61205;BME280;47068;55.780;37.520;2024-01-25T03:38:27;98580.31;;;1.26;87.62
61205;BME280;47068;55.780;37.520;2024-01-25T03:40:53;98594.34;;;1.25;87.24
61205;BME280;47068;55.780;37.520;2024-01-25T03:43:19;98588.38;;;1.13;87.74
61205;BME280;47068;55.780;37.520;2024-01-25T03:45:44;98585.66;;;1.14;88.53
61205;BME280;47068;55.780;37.520;2024-01-25T03:48:10;98586.59;;;1.13;88.19
61205;BME280;47068;55.780;37.520;2024-01-25T03:50:35;98575.88;;;1.26;88.31
61205;BME280;47068;55.780;37.520;2024-01-25T03:53:01;98573.19;;;1.37;88.78
61205;BME280;47068;55.780;37.520;2024-01-25T03:55:26;98571.78;;;1.33;87.04
61205;BME280;47068;55.780;37.520;2024-01-25T03:57:52;98572.44;;;1.26;86.83
61205;BME280;47068;55.780;37.520;2024-01-25T04:00:17;98573.56;;;1.23;87.08
61205;BME280;47068;55.780;37.520;2024-01-25T04:02:43;98572.00;;;1.21;87.27
61205;BME280;47068;55.780;37.520;2024-01-25T04:05:08;98573.16;;;1.28;87.74
61205;BME280;47068;55.780;37.520;2024-01-25T04:07:35;98545.81;;;1.21;88.54
61205;BME280;47068;55.780;37.520;2024-01-25T04:10:00;98569.91;;;1.45;86.54
61205;BME280;47068;55.780;37.520;2024-01-25T04:12:26;98566.75;;;1.51;86.77
61205;BME280;47068;55.780;37.520;2024-01-25T04:14:52;98556.38;;;1.49;86.20
61205;BME280;47068;55.780;37.520;2024-01-25T04:17:17;98566.47;;;1.54;86.28
61205;BME280;47068;55.780;37.520;2024-01-25T04:19:43;98544.50;;;1.45;86.57
61205;BME280;47068;55.780;37.520;2024-01-25T04:22:08;98567.16;;;1.56;84.74
61205;BME280;47068;55.780;37.520;2024-01-25T04:24:34;98576.84;;;1.65;86.62
61205;BME280;47068;55.780;37.520;2024-01-25T04:26:59;98565.97;;;1.79;86.64
61205;BME280;47068;55.780;37.520;2024-01-25T04:29:25;98570.22;;;1.80;84.90
61205;BME280;47068;55.780;37.520;2024-01-25T04:31:50;98571.59;;;1.75;85.29
61205;BME280;47068;55.780;37.520;2024-01-25T04:34:16;98573.94;;;1.68;84.39
61205;BME280;47068;55.780;37.520;2024-01-25T04:36:41;98585.38;;;1.67;84.85
61205;BME280;47068;55.780;37.520;2024-01-25T04:39:07;98575.19;;;1.64;84.77
61205;BME280;47068;55.780;37.520;2024-01-25T04:41:33;98570.34;;;1.69;85.14
61205;BME280;47068;55.780;37.520;2024-01-25T04:43:58;98555.88;;;1.65;85.12
61205;BME280;47068;55.780;37.520;2024-01-25T04:46:23;98562.50;;;1.79;85.81
61205;BME280;47068;55.780;37.520;2024-01-25T04:48:49;98578.25;;;1.79;83.44
61205;BME280;47068;55.780;37.520;2024-01-25T04:51:18;98577.97;;;1.72;84.01
61205;BME280;47068;55.780;37.520;2024-01-25T04:53:45;98577.53;;;1.77;84.36
61205;BME280;47068;55.780;37.520;2024-01-25T04:56:11;98571.34;;;1.78;84.61
61205;BME280;47068;55.780;37.520;2024-01-25T04:58:36;98575.91;;;1.85;84.75
61205;BME280;47068;55.780;37.520;2024-01-25T05:01:02;98569.41;;;1.89;84.57
61205;BME280;47068;55.780;37.520;2024-01-25T05:03:27;98575.34;;;1.72;84.05
61205;BME280;47068;55.780;37.520;2024-01-25T05:05:53;98564.16;;;1.70;84.83
61205;BME280;47068;55.780;37.520;2024-01-25T05:08:18;98571.84;;;1.62;84.64
61205;BME280;47068;55.780;37.520;2024-01-25T05:10:52;98569.78;;;1.56;84.63
61205;BME280;47068;55.780;37.520;2024-01-25T05:13:18;98558.00;;;1.41;84.52
61205;BME280;47068;55.780;37.520;2024-01-25T05:15:43;98553.69;;;1.21;84.36
61205;BME280;47068;55.780;37.520;2024-01-25T05:18:09;98568.03;;;1.26;85.67
61205;BME280;47068;55.780;37.520;2024-01-25T05:20:34;98570.69;;;1.36;85.76
61205;BME280;47068;55.780;37.520;2024-01-25T05:23:02;98566.56;;;1.43;85.46
61205;BME280;47068;55.780;37.520;2024-01-25T05:25:28;98569.16;;;1.24;83.85
61205;BME280;47068;55.780;37.520;2024-01-25T05:27:54;98568.75;;;1.28;85.26
61205;BME280;47068;55.780;37.520;2024-01-25T05:30:21;98572.34;;;1.37;84.67
61205;BME280;47068;55.780;37.520;2024-01-25T05:32:46;98570.31;;;1.50;85.57
61205;BME280;47068;55.780;37.520;2024-01-25T05:35:13;98555.16;;;1.63;86.19
61205;BME280;47068;55.780;37.520;2024-01-25T05:37:39;98571.31;;;1.68;83.64
61205;BME280;47068;55.780;37.520;2024-01-25T05:40:05;98559.16;;;1.67;84.08
61205;BME280;47068;55.780;37.520;2024-01-25T05:42:30;98566.78;;;1.70;83.49
61205;BME280;47068;55.780;37.520;2024-01-25T05:45:48;98563.56;;;2.72;83.58
61205;BME280;47068;55.780;37.520;2024-01-25T05:48:14;98570.22;;;3.41;81.55
61205;BME280;47068;55.780;37.520;2024-01-25T05:50:40;98560.03;;;3.28;79.23
61205;BME280;47068;55.780;37.520;2024-01-25T05:53:05;98571.81;;;2.87;78.04
61205;BME280;47068;55.780;37.520;2024-01-25T05:55:31;98572.44;;;2.52;76.83
61205;BME280;47068;55.780;37.520;2024-01-25T05:57:56;98574.78;;;2.36;76.76
61205;BME280;47068;55.780;37.520;2024-01-25T06:00:22;98563.50;;;2.07;77.14
61205;BME280;47068;55.780;37.520;2024-01-25T06:02:47;98569.97;;;2.03;79.32
61205;BME280;47068;55.780;37.520;2024-01-25T06:05:13;98555.63;;;2.07;78.92
61205;BME280;47068;55.780;37.520;2024-01-25T06:07:39;98567.47;;;2.01;78.85
61205;BME280;47068;55.780;37.520;2024-01-25T06:10:05;98560.59;;;2.10;78.60
61205;BME280;47068;55.780;37.520;2024-01-25T06:12:31;98560.72;;;2.08;78.67
61205;BME280;47068;55.780;37.520;2024-01-25T06:14:56;98562.25;;;1.91;77.90
61205;BME280;47068;55.780;37.520;2024-01-25T06:17:22;98557.38;;;1.58;77.37
61205;BME280;47068;55.780;37.520;2024-01-25T06:19:47;98549.59;;;1.47;79.00
61205;BME280;47068;55.780;37.520;2024-01-25T06:22:12;98556.13;;;1.62;79.93
61205;BME280;47068;55.780;37.520;2024-01-25T06:24:38;98558.06;;;1.70;79.46
61205;BME280;47068;55.780;37.520;2024-01-25T06:27:04;98559.91;;;1.79;80.04
61205;BME280;47068;55.780;37.520;2024-01-25T06:29:29;98556.28;;;1.80;78.95
61205;BME280;47068;55.780;37.520;2024-01-25T06:31:55;98550.63;;;1.75;79.23
61205;BME280;47068;55.780;37.520;2024-01-25T06:34:20;98553.66;;;1.70;78.97
61205;BME280;47068;55.780;37.520;2024-01-25T06:36:46;98547.00;;;1.66;79.45
61205;BME280;47068;55.780;37.520;2024-01-25T06:39:11;98554.38;;;1.72;78.22
61205;BME280;47068;55.780;37.520;2024-01-25T06:41:36;98559.03;;;1.69;78.75
61205;BME280;47068;55.780;37.520;2024-01-25T06:44:02;98546.44;;;1.53;78.75
61205;BME280;47068;55.780;37.520;2024-01-25T06:46:28;98563.56;;;1.67;78.10
61205;BME280;47068;55.780;37.520;2024-01-25T06:48:54;98564.69;;;1.74;79.18
61205;BME280;47068;55.780;37.520;2024-01-25T06:51:19;98560.97;;;1.76;79.25
61205;BME280;47068;55.780;37.520;2024-01-25T06:53:45;98561.84;;;1.86;79.23
61205;BME280;47068;55.780;37.520;2024-01-25T06:56:10;98545.13;;;1.78;79.00
61205;BME280;47068;55.780;37.520;2024-01-25T06:58:36;98563.88;;;1.83;79.15
61205;BME280;47068;55.780;37.520;2024-01-25T07:01:01;98541.81;;;1.76;79.75
61205;BME280;47068;55.780;37.520;2024-01-25T07:03:27;98562.78;;;1.95;79.38
61205;BME280;47068;55.780;37.520;2024-01-25T07:05:52;98544.59;;;1.93;78.76
61205;BME280;47068;55.780;37.520;2024-01-25T07:08:18;98568.19;;;2.13;79.22
61205;BME280;47068;55.780;37.520;2024-01-25T07:10:44;98564.16;;;2.09;78.87
61205;BME280;47068;55.780;37.520;2024-01-25T07:13:10;98570.25;;;2.19;79.48
61205;BME280;47068;55.780;37.520;2024-01-25T07:15:36;98568.16;;;2.22;77.53
61205;BME280;47068;55.780;37.520;2024-01-25T07:18:01;98552.88;;;1.98;78.33
61205;BME280;47068;55.780;37.520;2024-01-25T07:20:27;98552.56;;;2.02;78.90
61205;BME280;47068;55.780;37.520;2024-01-25T07:22:52;98559.72;;;1.80;77.45
61205;BME280;47068;55.780;37.520;2024-01-25T07:25:18;98545.09;;;1.58;78.21
61205;BME280;47068;55.780;37.520;2024-01-25T07:27:44;98563.34;;;1.79;79.14
61205;BME280;47068;55.780;37.520;2024-01-25T07:30:11;98563.06;;;1.92;80.06
61205;BME280;47068;55.780;37.520;2024-01-25T07:32:37;98564.47;;;2.06;79.34
61205;BME280;47068;55.780;37.520;2024-01-25T07:35:04;98568.59;;;2.18;79.31
61205;BME280;47068;55.780;37.520;2024-01-25T07:37:30;98555.75;;;2.24;79.21
61205;BME280;47068;55.780;37.520;2024-01-25T07:39:56;98489.38;;;1.85;77.88
61205;BME280;47068;55.780;37.520;2024-01-25T07:42:21;98548.16;;;2.12;76.93
61205;BME280;47068;55.780;37.520;2024-01-25T07:44:47;98569.56;;;2.17;77.21
61205;BME280;47068;55.780;37.520;2024-01-25T07:47:12;98561.69;;;2.26;76.18
61205;BME280;47068;55.780;37.520;2024-01-25T07:49:40;98559.19;;;2.15;75.74
61205;BME280;47068;55.780;37.520;2024-01-25T07:52:05;98562.22;;;2.30;77.08
61205;BME280;47068;55.780;37.520;2024-01-25T07:54:31;98567.22;;;2.33;75.54
61205;BME280;47068;55.780;37.520;2024-01-25T07:56:56;98557.84;;;2.21;75.13
61205;BME280;47068;55.780;37.520;2024-01-25T07:59:22;98570.53;;;2.16;75.50
61205;BME280;47068;55.780;37.520;2024-01-25T08:01:47;98569.16;;;2.12;75.12
61205;BME280;47068;55.780;37.520;2024-01-25T08:04:13;98555.19;;;2.02;75.72
61205;BME280;47068;55.780;37.520;2024-01-25T08:06:39;98565.84;;;2.19;75.56
61205;BME280;47068;55.780;37.520;2024-01-25T08:09:04;98558.50;;;2.23;75.56
61205;BME280;47068;55.780;37.520;2024-01-25T08:11:30;98572.03;;;2.37;76.04
61205;BME280;47068;55.780;37.520;2024-01-25T08:13:55;98573.28;;;2.43;76.04
61205;BME280;47068;55.780;37.520;2024-01-25T08:16:20;98566.66;;;2.49;75.69
61205;BME280;47068;55.780;37.520;2024-01-25T08:18:49;98564.44;;;2.44;74.67
61205;BME280;47068;55.780;37.520;2024-01-25T08:21:15;98568.34;;;2.21;72.83
61205;BME280;47068;55.780;37.520;2024-01-25T08:23:40;98571.38;;;2.07;74.19
61205;BME280;47068;55.780;37.520;2024-01-25T08:26:07;98556.16;;;1.91;74.99
61205;BME280;47068;55.780;37.520;2024-01-25T08:28:41;98553.41;;;2.02;75.98
61205;BME280;47068;55.780;37.520;2024-01-25T08:31:08;98558.66;;;1.92;74.05
61205;BME280;47068;55.780;37.520;2024-01-25T08:33:34;98562.41;;;2.00;75.23
61205;BME280;47068;55.780;37.520;2024-01-25T08:35:59;98557.56;;;1.85;73.30
61205;BME280;47068;55.780;37.520;2024-01-25T08:38:25;98558.09;;;1.79;73.28
61205;BME280;47068;55.780;37.520;2024-01-25T08:40:50;98560.53;;;1.62;73.88
61205;BME280;47068;55.780;37.520;2024-01-25T08:43:16;98559.84;;;1.50;74.78
61205;BME280;47068;55.780;37.520;2024-01-25T08:45:41;98558.03;;;1.50;74.50
61205;BME280;47068;55.780;37.520;2024-01-25T08:48:07;98563.00;;;1.53;75.62
61205;BME280;47068;55.780;37.520;2024-01-25T08:50:34;98558.47;;;1.55;74.44
61205;BME280;47068;55.780;37.520;2024-01-25T08:53:01;98570.47;;;1.58;74.09
61205;BME280;47068;55.780;37.520;2024-01-25T08:55:26;98533.88;;;1.47;75.17
61205;BME280;47068;55.780;37.520;2024-01-25T08:57:52;98562.81;;;1.85;75.98
61205;BME280;47068;55.780;37.520;2024-01-25T09:00:17;98563.91;;;1.92;75.27
61205;BME280;47068;55.780;37.520;2024-01-25T09:02:43;98559.88;;;2.08;75.55
61205;BME280;47068;55.780;37.520;2024-01-25T09:05:09;98557.28;;;1.98;72.31
61205;BME280;47068;55.780;37.520;2024-01-25T09:07:35;98568.03;;;1.85;73.54
61205;BME280;47068;55.780;37.520;2024-01-25T09:10:01;98554.63;;;1.88;74.44
61205;BME280;47068;55.780;37.520;2024-01-25T09:12:26;98555.75;;;1.95;74.09
61205;BME280;47068;55.780;37.520;2024-01-25T09:14:52;98560.31;;;1.93;73.76
61205;BME280;47068;55.780;37.520;2024-01-25T09:17:18;98562.66;;;1.96;74.83
61205;BME280;47068;55.780;37.520;2024-01-25T09:19:50;98558.25;;;1.97;73.94
61205;BME280;47068;55.780;37.520;2024-01-25T09:22:16;98549.81;;;1.84;73.02
61205;BME280;47068;55.780;37.520;2024-01-25T09:24:44;98565.25;;;1.87;72.62
61205;BME280;47068;55.780;37.520;2024-01-25T09:27:10;98561.94;;;1.75;73.29
61205;BME280;47068;55.780;37.520;2024-01-25T09:29:35;98566.91;;;1.88;74.48
61205;BME280;47068;55.780;37.520;2024-01-25T09:32:03;98565.84;;;1.90;73.85
61205;BME280;47068;55.780;37.520;2024-01-25T09:34:28;98562.25;;;1.91;73.29
61205;BME280;47068;55.780;37.520;2024-01-25T09:36:54;98563.06;;;2.02;73.72
61205;BME280;47068;55.780;37.520;2024-01-25T09:39:19;98535.47;;;1.97;73.83
61205;BME280;47068;55.780;37.520;2024-01-25T09:41:45;98556.47;;;2.07;73.40
61205;BME280;47068;55.780;37.520;2024-01-25T09:44:11;98560.59;;;2.10;72.06
61205;BME280;47068;55.780;37.520;2024-01-25T09:46:37;98509.91;;;1.80;72.13
61205;BME280;47068;55.780;37.520;2024-01-25T09:49:02;98556.44;;;1.97;71.50
61205;BME280;47068;55.780;37.520;2024-01-25T09:51:36;98527.75;;;1.86;71.93
61205;BME280;47068;55.780;37.520;2024-01-25T09:54:03;98542.94;;;1.92;72.39
61205;BME280;47068;55.780;37.520;2024-01-25T09:56:31;98545.13;;;2.07;72.09
61205;BME280;47068;55.780;37.520;2024-01-25T09:58:58;98544.69;;;2.02;72.08
61205;BME280;47068;55.780;37.520;2024-01-25T10:01:24;98531.47;;;1.84;71.34
61205;BME280;47068;55.780;37.520;2024-01-25T10:03:49;98542.63;;;1.76;71.51
61205;BME280;47068;55.780;37.520;2024-01-25T10:06:15;98534.34;;;1.71;72.02
61205;BME280;47068;55.780;37.520;2024-01-25T10:08:42;98534.06;;;1.74;72.41
61205;BME280;47068;55.780;37.520;2024-01-25T10:11:07;98540.72;;;1.78;73.13
61205;BME280;47068;55.780;37.520;2024-01-25T10:13:49;98522.75;;;1.83;73.97
61205;BME280;47068;55.780;37.520;2024-01-25T10:16:19;98526.91;;;1.86;72.31
61205;BME280;47068;55.780;37.520;2024-01-25T10:18:48;98533.22;;;1.74;72.49
61205;BME280;47068;55.780;37.520;2024-01-25T10:21:15;98531.03;;;1.69;73.20
61205;BME280;47068;55.780;37.520;2024-01-25T10:23:43;98523.72;;;1.73;73.06
61205;BME280;47068;55.780;37.520;2024-01-25T10:26:09;98531.59;;;1.73;72.98
61205;BME280;47068;55.780;37.520;2024-01-25T10:28:35;98537.94;;;1.70;73.68
61205;BME280;47068;55.780;37.520;2024-01-25T10:31:01;98542.06;;;1.82;74.85
61205;BME280;47068;55.780;37.520;2024-01-25T10:33:29;98531.59;;;1.82;74.29
61205;BME280;47068;55.780;37.520;2024-01-25T10:35:55;98539.72;;;1.89;74.05
61205;BME280;47068;55.780;37.520;2024-01-25T10:40:55;98534.47;;;1.70;74.41
61205;BME280;47068;55.780;37.520;2024-01-25T10:43:21;98535.41;;;1.49;73.89
61205;BME280;47068;55.780;37.520;2024-01-25T10:45:47;98531.25;;;1.47;75.32
61205;BME280;47068;55.780;37.520;2024-01-25T10:48:13;98532.09;;;1.47;75.35
61205;BME280;47068;55.780;37.520;2024-01-25T10:50:38;98531.00;;;1.50;75.80
61205;BME280;47068;55.780;37.520;2024-01-25T10:53:06;98508.75;;;1.35;76.47
61205;BME280;47068;55.780;37.520;2024-01-25T10:55:32;98536.00;;;1.63;77.09
61205;BME280;47068;55.780;37.520;2024-01-25T10:57:58;98542.78;;;1.84;77.71
61205;BME280;47068;55.780;37.520;2024-01-25T11:00:23;98541.53;;;1.88;76.56
61205;BME280;47068;55.780;37.520;2024-01-25T11:02:51;98541.38;;;1.71;76.19
61205;BME280;47068;55.780;37.520;2024-01-25T11:05:17;98548.06;;;1.35;76.89
61205;BME280;47068;55.780;37.520;2024-01-25T11:07:48;98534.75;;;1.07;77.90
61205;BME280;47068;55.780;37.520;2024-01-25T11:10:16;98537.78;;;1.12;79.68
61205;BME280;47068;55.780;37.520;2024-01-25T11:12:59;98536.13;;;1.11;79.59
61205;BME280;47068;55.780;37.520;2024-01-25T11:15:34;98514.31;;;1.01;79.14
61205;BME280;47068;55.780;37.520;2024-01-25T11:18:02;98541.13;;;1.14;79.43
61205;BME280;47068;55.780;37.520;2024-01-25T11:20:28;98542.66;;;0.87;79.45
61205;BME280;47068;55.780;37.520;2024-01-25T11:22:59;98539.09;;;0.88;79.54
61205;BME280;47068;55.780;37.520;2024-01-25T11:25:28;98529.69;;;0.85;79.73
61205;BME280;47068;55.780;37.520;2024-01-25T11:27:55;98547.13;;;0.96;80.09
61205;BME280;47068;55.780;37.520;2024-01-25T11:30:20;98539.69;;;1.01;79.41
61205;BME280;47068;55.780;37.520;2024-01-25T11:32:47;98538.59;;;1.03;79.23
61205;BME280;47068;55.780;37.520;2024-01-25T11:35:13;98507.00;;;0.95;79.69
61205;BME280;47068;55.780;37.520;2024-01-25T11:37:49;98535.88;;;1.14;78.29
61205;BME280;47068;55.780;37.520;2024-01-25T11:40:16;98543.31;;;1.09;78.77
61205;BME280;47068;55.780;37.520;2024-01-25T11:42:43;98556.22;;;1.01;79.10
61205;BME280;47068;55.780;37.520;2024-01-25T11:45:12;98543.84;;;1.03;79.80
61205;BME280;47068;55.780;37.520;2024-01-25T11:47:38;98513.19;;;0.94;80.02
61205;BME280;47068;55.780;37.520;2024-01-25T11:50:05;98544.44;;;1.26;79.82
61205;BME280;47068;55.780;37.520;2024-01-25T11:52:32;98552.44;;;1.25;79.59
61205;BME280;47068;55.780;37.520;2024-01-25T11:55:02;98548.47;;;1.30;80.19
61205;BME280;47068;55.780;37.520;2024-01-25T11:57:28;98551.66;;;1.34;80.11
61205;BME280;47068;55.780;37.520;2024-01-25T11:59:55;98546.13;;;1.27;79.86
61205;BME280;47068;55.780;37.520;2024-01-25T12:02:21;98541.25;;;1.13;80.31
61205;BME280;47068;55.780;37.520;2024-01-25T12:04:47;98539.88;;;1.18;80.95
61205;BME280;47068;55.780;37.520;2024-01-25T12:07:14;98554.44;;;1.42;80.44
61205;BME280;47068;55.780;37.520;2024-01-25T12:09:39;98517.59;;;1.24;79.63
61205;BME280;47068;55.780;37.520;2024-01-25T12:12:05;98551.66;;;1.34;78.73
61205;BME280;47068;55.780;37.520;2024-01-25T12:14:31;98555.28;;;1.12;78.82
61205;BME280;47068;55.780;37.520;2024-01-25T12:16:56;98559.09;;;0.98;79.90
61205;BME280;47068;55.780;37.520;2024-01-25T12:19:22;98545.91;;;0.79;80.19
61205;BME280;47068;55.780;37.520;2024-01-25T12:21:48;98545.06;;;0.69;80.90
61205;BME280;47068;55.780;37.520;2024-01-25T12:24:13;98561.31;;;0.72;81.24
61205;BME280;47068;55.780;37.520;2024-01-25T12:26:41;98570.63;;;0.86;81.34
61205;BME280;47068;55.780;37.520;2024-01-25T12:29:07;98569.97;;;0.94;80.17
61205;BME280;47068;55.780;37.520;2024-01-25T12:31:34;98572.72;;;0.92;80.48
61205;BME280;47068;55.780;37.520;2024-01-25T12:34:02;98569.03;;;0.95;80.21
61205;BME280;47068;55.780;37.520;2024-01-25T12:36:28;98569.16;;;0.93;80.33
61205;BME280;47068;55.780;37.520;2024-01-25T12:38:53;98549.78;;;0.75;80.57
61205;BME280;47068;55.780;37.520;2024-01-25T12:41:18;98548.34;;;0.71;80.45
61205;BME280;47068;55.780;37.520;2024-01-25T12:43:44;98550.28;;;0.69;81.75
61205;BME280;47068;55.780;37.520;2024-01-25T12:46:09;98573.50;;;0.83;82.60
61205;BME280;47068;55.780;37.520;2024-01-25T12:48:35;98579.38;;;0.96;82.05
61205;BME280;47068;55.780;37.520;2024-01-25T12:51:01;98576.59;;;0.98;81.56
61205;BME280;47068;55.780;37.520;2024-01-25T12:53:27;98571.06;;;0.91;81.31
61205;BME280;47068;55.780;37.520;2024-01-25T12:55:53;98561.38;;;0.82;81.33
61205;BME280;47068;55.780;37.520;2024-01-25T12:58:18;98555.53;;;0.69;81.95
61205;BME280;47068;55.780;37.520;2024-01-25T13:00:44;98574.91;;;0.87;83.30